createdAt,value
2023-01-05T00:01:55.915Z,19.17
2023-01-05T00:04:24.386Z,18.97
2023-01-05T00:06:55.484Z,19.57
2023-01-05T00:09:23.660Z,21.93
2023-01-05T00:12:10.507Z,21.20
2023-01-05T00:14:56.017Z,20.37
2023-01-05T00:17:41.976Z,19.57
2023-01-05T00:20:32.655Z,21.20
2023-01-05T00:23:00.634Z,21.53
2023-01-05T00:25:29.469Z,21.87
2023-01-05T00:27:59.282Z,22.07
2023-01-05T00:30:28.616Z,21.73
2023-01-05T00:32:56.590Z,26.90
2023-01-05T00:35:24.963Z,22.47
2023-01-05T00:37:53.024Z,24.07
2023-01-05T00:40:21.924Z,24.20
2023-01-05T00:42:50.401Z,22.53
2023-01-05T00:45:22.203Z,29.03
2023-01-05T00:47:51.935Z,23.33
2023-01-05T00:50:20.561Z,23.20
2023-01-05T00:52:48.535Z,23.07
2023-01-05T00:55:16.699Z,21.13
2023-01-05T00:57:45.509Z,22.50
2023-01-05T01:00:14.937Z,22.87
2023-01-05T01:02:44.398Z,24.77
2023-01-05T01:05:12.784Z,20.33
2023-01-05T01:07:40.757Z,21.00
2023-01-05T01:10:09.376Z,25.37
2023-01-05T01:12:37.540Z,22.07
2023-01-05T01:15:05.983Z,19.33
2023-01-05T01:17:34.066Z,19.13
2023-01-05T01:20:03.590Z,23.33
2023-01-05T01:22:31.539Z,21.20
2023-01-05T01:24:59.445Z,25.27
2023-01-05T01:27:27.430Z,23.10
2023-01-05T01:29:55.377Z,24.10
2023-01-05T01:32:24.567Z,22.63
2023-01-05T01:34:52.865Z,21.10
2023-01-05T01:37:22.194Z,23.10
2023-01-05T01:39:50.144Z,24.17
2023-01-05T01:42:18.419Z,20.60
2023-01-05T01:44:50.549Z,20.73
2023-01-05T01:47:21.602Z,18.10
2023-01-05T01:49:49.832Z,22.10
2023-01-05T01:52:18.152Z,18.17
2023-01-05T01:54:48.221Z,17.50
2023-01-05T01:57:16.583Z,20.17
2023-01-05T01:59:44.659Z,20.27
2023-01-05T02:02:13.632Z,23.07
2023-01-05T02:04:41.986Z,21.57
2023-01-05T02:07:11.286Z,23.70
2023-01-05T02:09:39.523Z,22.67
2023-01-05T02:12:16.884Z,20.87
2023-01-05T02:14:50.910Z,21.47
2023-01-05T02:17:24.778Z,19.60
2023-01-05T02:20:11.474Z,18.63
2023-01-05T02:22:55.878Z,17.43
2023-01-05T02:25:34.543Z,22.30
2023-01-05T02:28:11.929Z,20.27
2023-01-05T02:30:59.726Z,21.10
2023-01-05T02:33:30.964Z,19.83
2023-01-05T02:36:00.251Z,17.47
2023-01-05T02:38:33.346Z,16.30
2023-01-05T02:41:05.678Z,17.70
2023-01-05T02:43:33.673Z,19.70
2023-01-05T02:46:03.291Z,19.13
2023-01-05T02:48:31.297Z,18.67
2023-01-05T02:51:02.329Z,18.07
2023-01-05T02:53:32.752Z,21.57
2023-01-05T02:56:03.261Z,22.23
2023-01-05T02:58:33.326Z,16.83
2023-01-05T03:01:04.990Z,18.20
2023-01-05T03:03:36.097Z,21.37
2023-01-05T03:06:05.720Z,16.90
2023-01-05T03:08:34.637Z,22.00
2023-01-05T03:11:21.618Z,17.90
2023-01-05T03:13:52.274Z,19.50
2023-01-05T03:16:24.239Z,20.27
2023-01-05T03:19:14.035Z,17.90
2023-01-05T03:21:59.657Z,20.77
2023-01-05T03:24:45.248Z,15.90
2023-01-05T03:27:31.295Z,17.80
2023-01-05T03:30:16.738Z,17.40
2023-01-05T03:33:07.389Z,17.10
2023-01-05T03:35:38.741Z,16.97
2023-01-05T03:38:17.625Z,17.33
2023-01-05T03:40:47.006Z,20.03
2023-01-05T03:43:15.096Z,18.27
2023-01-05T03:45:44.681Z,16.67
2023-01-05T03:48:14.069Z,17.33
2023-01-05T03:50:42.035Z,17.90
2023-01-05T03:53:10.005Z,17.53
2023-01-05T03:55:37.975Z,21.50
2023-01-05T03:58:05.958Z,16.73
2023-01-05T04:00:34.034Z,18.00
2023-01-05T04:03:02.107Z,16.80
2023-01-05T04:05:31.590Z,22.20
2023-01-05T04:07:59.605Z,17.87
2023-01-05T04:10:27.580Z,17.30
2023-01-05T04:12:55.490Z,16.30
2023-01-05T04:15:23.495Z,18.13
2023-01-05T04:17:51.505Z,15.00
2023-01-05T04:20:19.452Z,17.33
2023-01-05T04:22:48.805Z,18.03
2023-01-05T04:25:16.872Z,16.07
2023-01-05T04:27:44.848Z,20.53
2023-01-05T04:30:13.113Z,16.30
2023-01-05T04:32:41.130Z,20.37
2023-01-05T04:35:11.472Z,19.80
2023-01-05T04:37:39.827Z,17.90
2023-01-05T04:40:10.034Z,17.70
2023-01-05T04:42:38.052Z,18.03
2023-01-05T04:45:06.943Z,18.60
2023-01-05T04:47:34.909Z,17.73
2023-01-05T04:50:02.883Z,18.43
2023-01-05T04:52:30.981Z,18.17
2023-01-05T04:54:59.485Z,17.77
2023-01-05T04:57:28.852Z,16.40
2023-01-05T04:59:56.776Z,17.20
2023-01-05T05:02:25.071Z,19.73
2023-01-05T05:04:53.156Z,16.70
2023-01-05T05:07:21.135Z,20.70
2023-01-05T05:09:49.243Z,19.83
2023-01-05T05:12:20.555Z,17.73
2023-01-05T05:14:50.030Z,20.37
2023-01-05T05:17:18.212Z,18.93
2023-01-05T05:19:46.187Z,16.27
2023-01-05T05:22:14.196Z,15.47
2023-01-05T05:24:42.307Z,16.17
2023-01-05T05:27:10.283Z,17.83
2023-01-05T05:29:38.267Z,20.70
2023-01-05T05:32:07.869Z,17.63
2023-01-05T05:34:35.893Z,20.73
2023-01-05T05:37:03.892Z,17.37
2023-01-05T05:39:31.819Z,15.80
2023-01-05T05:41:59.886Z,19.50
2023-01-05T05:44:27.946Z,19.80
2023-01-05T05:46:55.908Z,31.00
2023-01-05T05:49:25.402Z,21.40
2023-01-05T05:51:53.337Z,18.87
2023-01-05T05:54:21.441Z,17.43
2023-01-05T05:56:49.413Z,20.07
2023-01-05T05:59:17.440Z,19.33
2023-01-05T06:01:45.675Z,16.03
2023-01-05T06:04:13.705Z,17.20
2023-01-05T06:06:43.064Z,18.67
2023-01-05T06:09:11.121Z,17.43
2023-01-05T06:11:39.150Z,17.17
2023-01-05T06:14:07.831Z,18.50
2023-01-05T06:16:35.963Z,19.97
2023-01-05T06:19:04.020Z,18.50
2023-01-05T06:21:32.009Z,20.10
2023-01-05T06:24:01.514Z,16.47
2023-01-05T06:26:29.487Z,17.97
2023-01-05T06:28:57.437Z,17.80
2023-01-05T06:31:25.462Z,16.93
2023-01-05T06:33:53.470Z,17.53
2023-01-05T06:36:21.552Z,16.37
2023-01-05T06:38:49.570Z,16.00
2023-01-05T06:41:18.959Z,17.20
2023-01-05T06:43:46.973Z,17.77
2023-01-05T06:46:15.073Z,19.87
2023-01-05T06:48:43.128Z,17.80
2023-01-05T06:51:11.157Z,16.47
2023-01-05T06:53:39.203Z,21.03
2023-01-05T06:56:07.377Z,19.30
2023-01-05T06:58:36.774Z,20.00
2023-01-05T07:01:04.923Z,22.53
2023-01-05T07:03:33.144Z,17.33
2023-01-05T07:06:01.266Z,19.23
2023-01-05T07:08:29.367Z,17.20
2023-01-05T07:10:57.458Z,15.80
2023-01-05T07:13:26.004Z,18.53
2023-01-05T07:15:58.194Z,16.77
2023-01-05T07:18:29.082Z,22.00
2023-01-05T07:20:57.052Z,18.70
2023-01-05T07:23:25.091Z,19.17
2023-01-05T07:25:53.072Z,17.57
2023-01-05T07:28:20.991Z,19.13
2023-01-05T07:30:52.610Z,21.27
2023-01-05T07:33:22.181Z,15.53
2023-01-05T07:35:50.267Z,19.40
2023-01-05T07:38:18.268Z,15.90
2023-01-05T07:40:46.487Z,18.50
2023-01-05T07:43:14.457Z,18.13
2023-01-05T07:45:42.480Z,18.23
2023-01-05T07:48:10.739Z,16.30
2023-01-05T07:50:40.192Z,16.13
2023-01-05T07:53:08.171Z,19.03
2023-01-05T07:55:36.159Z,19.13
2023-01-05T07:58:07.789Z,19.90
2023-01-05T08:00:36.194Z,20.47
2023-01-05T08:03:04.534Z,17.53
2023-01-05T08:05:34.908Z,21.70
2023-01-05T08:08:04.513Z,16.20
2023-01-05T08:10:32.575Z,15.77
2023-01-05T08:13:21.992Z,20.97
2023-01-05T08:15:51.564Z,18.10
2023-01-05T08:18:19.895Z,17.97
2023-01-05T08:20:51.339Z,18.60
2023-01-05T08:23:25.776Z,19.93
2023-01-05T08:25:54.763Z,21.50
2023-01-05T08:28:22.743Z,20.93
2023-01-05T08:30:50.687Z,20.60
2023-01-05T08:33:18.824Z,21.53
2023-01-05T08:35:47.134Z,21.70
2023-01-05T08:38:15.281Z,21.17
2023-01-05T08:40:44.907Z,19.67
2023-01-05T08:43:12.957Z,17.60
2023-01-05T08:45:40.963Z,20.60
2023-01-05T08:48:09.459Z,21.43
2023-01-05T08:50:38.772Z,21.50
2023-01-05T08:53:06.887Z,20.90
2023-01-05T08:55:38.004Z,20.83
2023-01-05T08:58:07.724Z,22.37
2023-01-05T09:00:36.165Z,21.20
2023-01-05T09:03:04.355Z,30.27
2023-01-05T09:05:32.450Z,21.90
2023-01-05T09:08:00.428Z,21.70
2023-01-05T09:10:28.688Z,23.97
2023-01-05T09:12:56.719Z,17.60
2023-01-05T09:15:26.670Z,22.47
2023-01-05T09:17:54.887Z,22.67
2023-01-05T09:20:23.071Z,20.63
2023-01-05T09:22:51.059Z,18.07
2023-01-05T09:25:19.083Z,19.83
2023-01-05T09:27:47.042Z,18.43
2023-01-05T09:30:17.551Z,21.77
2023-01-05T09:32:47.076Z,26.03
2023-01-05T09:35:15.016Z,18.70
2023-01-05T09:37:43.866Z,19.83
2023-01-05T09:40:13.759Z,22.07
2023-01-05T09:42:44.960Z,23.80
2023-01-05T09:45:14.280Z,19.33
2023-01-05T09:47:45.889Z,24.93
2023-01-05T09:50:20.172Z,19.53
2023-01-05T09:52:48.596Z,20.90
2023-01-05T09:55:18.015Z,19.27
2023-01-05T09:57:51.541Z,20.33
2023-01-05T10:00:19.752Z,23.20
2023-01-05T10:02:50.546Z,20.43
2023-01-05T10:05:20.660Z,16.10
2023-01-05T10:07:51.531Z,17.47
2023-01-05T10:10:30.520Z,21.47
2023-01-05T10:13:06.569Z,19.37
2023-01-05T10:15:43.599Z,20.03
2023-01-05T10:18:13.414Z,19.53
2023-01-05T10:20:56.184Z,18.83
2023-01-05T10:23:33.739Z,19.73
2023-01-05T10:26:12.156Z,21.33
2023-01-05T10:28:43.150Z,21.87
2023-01-05T10:31:20.244Z,21.97
2023-01-05T10:33:56.806Z,21.37
2023-01-05T10:37:09.900Z,22.43
2023-01-05T10:39:56.728Z,23.60
2023-01-05T10:42:31.561Z,21.13
2023-01-05T10:45:02.718Z,23.20
2023-01-05T10:47:32.555Z,25.80
2023-01-05T10:50:02.289Z,24.80
2023-01-05T10:52:31.157Z,22.80
2023-01-05T10:54:59.709Z,24.70
2023-01-05T10:57:42.671Z,22.43
2023-01-05T11:00:15.547Z,19.97
2023-01-05T11:02:44.590Z,24.63
2023-01-05T11:05:23.438Z,21.43
2023-01-05T11:07:54.324Z,22.70
2023-01-05T11:10:27.583Z,22.63
2023-01-05T11:13:03.534Z,22.50
2023-01-05T11:15:33.606Z,26.33
2023-01-05T11:18:01.783Z,21.20
2023-01-05T11:20:30.448Z,20.03
2023-01-05T11:22:58.773Z,23.53
2023-01-05T11:25:30.797Z,20.90
2023-01-05T11:28:11.252Z,21.13
2023-01-05T11:30:39.802Z,24.53
2023-01-05T11:33:18.494Z,24.10
2023-01-05T11:35:50.382Z,26.23
2023-01-05T11:38:22.814Z,21.77
2023-01-05T11:40:50.785Z,27.03
2023-01-05T11:43:21.252Z,23.03
2023-01-05T11:45:51.328Z,20.53
2023-01-05T11:48:21.160Z,27.37
2023-01-05T11:50:50.537Z,22.00
2023-01-05T11:53:25.957Z,45.13
2023-01-05T11:56:01.099Z,59.17
2023-01-05T11:58:33.275Z,32.37
2023-01-05T12:01:07.576Z,29.37
2023-01-05T12:03:46.145Z,20.47
2023-01-05T12:06:21.645Z,19.33
2023-01-05T12:08:54.670Z,30.53
2023-01-05T12:11:23.611Z,18.33
2023-01-05T12:14:00.199Z,28.27
2023-01-05T12:16:35.179Z,35.40
2023-01-05T12:19:08.956Z,22.73
2023-01-05T12:21:39.512Z,25.07
2023-01-05T12:24:18.247Z,20.20
2023-01-05T12:26:51.306Z,23.70
2023-01-05T12:35:46.446Z,18.47
2023-01-05T12:38:25.833Z,20.57
2023-01-05T12:41:04.951Z,19.83
2023-01-05T12:43:38.438Z,19.07
2023-01-05T12:46:18.441Z,18.73
2023-01-05T12:48:48.374Z,20.37
2023-01-05T12:51:19.307Z,21.17
2023-01-05T12:53:51.852Z,19.90
2023-01-05T12:56:23.757Z,19.53
2023-01-05T12:59:05.522Z,17.83
2023-01-05T13:01:36.431Z,24.30
2023-01-05T13:04:06.115Z,35.23
2023-01-05T13:06:38.844Z,22.80
2023-01-05T13:09:10.956Z,22.47
2023-01-05T13:11:41.969Z,18.47
2023-01-05T13:14:15.176Z,21.37
2023-01-05T13:16:45.619Z,20.37
2023-01-05T13:19:16.232Z,20.47
2023-01-05T13:21:46.086Z,18.87
2023-01-05T13:24:18.183Z,17.43
2023-01-05T13:26:46.122Z,17.27
2023-01-05T13:29:18.129Z,16.30
2023-01-05T13:31:52.504Z,15.20
2023-01-05T13:34:35.271Z,16.50
2023-01-05T13:37:10.275Z,12.13
2023-01-05T13:39:45.033Z,13.17
2023-01-05T13:42:18.667Z,15.87
2023-01-05T13:45:00.153Z,16.67
2023-01-05T13:47:46.241Z,17.90
2023-01-05T13:50:37.988Z,12.00
2023-01-05T13:53:08.261Z,15.90
2023-01-05T13:55:38.750Z,15.57
2023-01-05T13:58:07.620Z,14.93
2023-01-05T14:00:37.165Z,12.07
2023-01-05T14:03:09.018Z,9.33
2023-01-05T14:05:42.399Z,10.07
2023-01-05T14:08:19.068Z,12.67
2023-01-05T14:11:07.047Z,13.80
2023-01-05T14:13:48.588Z,12.80
2023-01-05T14:16:35.405Z,12.20
2023-01-05T14:19:12.896Z,11.43
2023-01-05T14:22:00.354Z,11.07
2023-01-05T14:24:30.009Z,9.70
2023-01-05T14:27:02.866Z,10.97
2023-01-05T14:32:21.577Z,10.10
2023-01-05T14:34:52.257Z,8.90
2023-01-05T14:37:23.401Z,12.43
2023-01-05T14:39:54.821Z,12.37
2023-01-05T14:42:29.757Z,12.53
2023-01-05T14:45:00.470Z,12.30
2023-01-05T14:47:36.510Z,9.37
2023-01-05T14:50:07.392Z,12.60
2023-01-05T14:52:55.238Z,9.53
2023-01-05T14:55:37.746Z,11.87
2023-01-05T14:58:07.299Z,12.23
2023-01-05T15:00:40.749Z,13.23
2023-01-05T15:03:33.548Z,12.07
2023-01-05T15:06:07.804Z,9.60
2023-01-05T15:09:10.542Z,8.87
2023-01-05T15:11:53.513Z,8.30
2023-01-05T15:14:35.442Z,8.03
2023-01-05T15:17:24.559Z,9.97
2023-01-05T15:20:03.218Z,8.23
2023-01-05T15:22:41.898Z,8.63
2023-01-05T15:25:35.220Z,12.20
2023-01-05T15:28:27.240Z,7.67
2023-01-05T15:31:10.151Z,9.27
2023-01-05T15:33:41.888Z,10.87
2023-01-05T15:36:16.774Z,7.97
2023-01-05T15:38:47.623Z,8.87
2023-01-05T15:41:17.949Z,7.80
2023-01-05T15:43:45.966Z,11.10
2023-01-05T15:46:18.883Z,8.87
2023-01-05T15:48:48.181Z,9.87
2023-01-05T15:51:23.708Z,8.00
2023-01-05T15:53:57.014Z,8.83
2023-01-05T15:56:27.363Z,8.70
2023-01-05T15:58:55.762Z,7.93
2023-01-05T16:01:23.907Z,9.23
2023-01-05T16:03:52.228Z,8.07
2023-01-05T16:06:21.411Z,9.67
2023-01-05T16:08:50.497Z,8.00
2023-01-05T16:11:25.520Z,8.00
2023-01-05T16:13:56.325Z,9.00
2023-01-05T16:16:50.688Z,7.43
2023-01-05T16:19:15.080Z,7.60
2023-01-05T16:21:44.447Z,7.97
2023-01-05T16:24:16.977Z,6.83
2023-01-05T16:26:46.411Z,9.60
2023-01-05T16:29:21.536Z,7.93
2023-01-05T16:31:56.864Z,9.47
2023-01-05T16:34:27.759Z,8.40
2023-01-05T16:37:02.567Z,8.37
2023-01-05T16:39:33.943Z,9.47
2023-01-05T16:42:21.442Z,8.17
2023-01-05T16:44:55.822Z,6.70
2023-01-05T16:47:34.924Z,7.90
2023-01-05T16:50:07.979Z,7.00
2023-01-05T16:52:46.008Z,9.23
2023-01-05T16:55:28.227Z,7.50
2023-01-05T16:57:58.248Z,14.60
2023-01-05T17:00:37.213Z,11.20
2023-01-05T17:03:25.327Z,9.97
2023-01-05T17:05:53.806Z,13.93
2023-01-05T17:08:22.763Z,9.27
2023-01-05T17:10:51.653Z,11.77
2023-01-05T17:13:22.513Z,9.23
2023-01-05T17:15:51.464Z,8.17
2023-01-05T17:20:51.431Z,7.97
2023-01-05T17:23:21.850Z,10.90
2023-01-05T17:25:50.321Z,9.63
2023-01-05T17:28:18.337Z,9.43
2023-01-05T17:30:47.790Z,8.83
2023-01-05T17:33:15.781Z,11.90
2023-01-05T17:35:44.062Z,8.73
2023-01-05T17:38:12.559Z,10.27
2023-01-05T17:40:40.917Z,11.33
2023-01-05T17:43:08.946Z,9.00
2023-01-05T17:45:39.433Z,8.43
2023-01-05T17:48:09.083Z,9.73
2023-01-05T17:50:37.028Z,8.90
2023-01-05T17:53:05.813Z,11.17
2023-01-05T17:55:33.910Z,10.73
2023-01-05T17:58:01.965Z,10.57
2023-01-05T18:00:30.901Z,10.03
2023-01-05T18:02:58.847Z,14.83
2023-01-05T18:05:28.960Z,12.73
2023-01-05T18:07:57.105Z,9.43
2023-01-05T18:10:27.017Z,8.73
2023-01-05T18:12:57.001Z,11.93
2023-01-05T18:17:57.565Z,9.97
2023-01-05T18:20:25.564Z,9.47
2023-01-05T18:22:54.939Z,7.93
2023-01-05T18:25:23.037Z,8.03
2023-01-05T18:27:50.973Z,8.50
2023-01-05T18:30:19.148Z,8.33
2023-01-05T18:32:47.123Z,10.50
2023-01-05T18:35:15.113Z,8.60
2023-01-05T18:37:43.127Z,9.67
2023-01-05T18:40:13.489Z,10.07
2023-01-05T18:42:41.504Z,12.47
2023-01-05T18:45:19.574Z,8.07
2023-01-05T18:47:56.492Z,7.80
2023-01-05T18:50:24.493Z,7.63
2023-01-05T18:52:52.498Z,7.63
2023-01-05T18:55:21.905Z,10.37
2023-01-05T18:57:50.002Z,7.10
2023-01-05T19:00:18.055Z,7.30
2023-01-05T19:02:46.008Z,6.70
2023-01-05T19:05:13.966Z,6.90
2023-01-05T19:07:41.956Z,7.30
2023-01-05T19:10:10.149Z,5.70
2023-01-05T19:12:39.472Z,6.13
2023-01-05T19:15:07.929Z,9.50
2023-01-05T19:17:35.883Z,8.97
2023-01-05T19:20:03.879Z,5.47
2023-01-05T19:22:31.891Z,5.63
2023-01-05T19:24:59.880Z,5.37
2023-01-05T19:27:28.154Z,5.87
2023-01-05T19:29:57.609Z,12.47
2023-01-05T19:32:25.589Z,6.47
2023-01-05T19:34:53.537Z,7.93
2023-01-05T19:37:21.520Z,6.40
2023-01-05T19:39:49.467Z,5.77
2023-01-05T19:42:17.524Z,5.53
2023-01-05T19:44:46.864Z,5.03
2023-01-05T19:47:16.256Z,4.87
2023-01-05T19:49:44.186Z,5.00
2023-01-05T19:52:14.013Z,5.47
2023-01-05T19:54:41.998Z,5.77
2023-01-05T19:57:09.937Z,5.43
2023-01-05T19:59:37.961Z,6.40
2023-01-05T20:02:06.309Z,6.47
2023-01-05T20:04:36.044Z,4.87
2023-01-05T20:07:04.563Z,6.27
2023-01-05T20:09:35.565Z,6.73
2023-01-05T20:12:13.818Z,5.67
2023-01-05T20:14:43.129Z,7.50
2023-01-05T20:17:11.826Z,9.07
2023-01-05T20:19:41.446Z,7.33
2023-01-05T20:22:13.885Z,6.60
2023-01-05T20:24:42.623Z,6.07
2023-01-05T20:27:12.083Z,5.70
2023-01-05T20:29:40.836Z,5.87
2023-01-05T20:32:09.818Z,8.77
2023-01-05T20:34:39.327Z,8.63
2023-01-05T20:37:10.420Z,6.17
2023-01-05T20:39:38.963Z,5.57
2023-01-05T20:42:10.833Z,5.77
2023-01-05T20:44:39.648Z,7.40
2023-01-05T20:47:09.387Z,7.10
2023-01-05T20:49:38.236Z,5.53
2023-01-05T20:52:06.714Z,8.00
2023-01-05T20:54:36.482Z,8.60
2023-01-05T20:57:04.731Z,8.53
2023-01-05T20:59:33.895Z,7.13
2023-01-05T21:02:02.706Z,8.13
2023-01-05T21:04:32.016Z,7.77
2023-01-05T21:07:01.337Z,6.97
2023-01-05T21:09:30.404Z,6.67
2023-01-05T21:12:00.204Z,6.60
2023-01-05T21:14:28.361Z,6.13
2023-01-05T21:16:56.637Z,7.40
2023-01-05T21:19:25.130Z,7.43
2023-01-05T21:21:53.948Z,7.93
2023-01-05T21:24:22.588Z,8.37
2023-01-05T21:26:50.595Z,7.70
2023-01-05T21:29:22.292Z,5.77
2023-01-05T21:31:50.633Z,6.97
2023-01-05T21:34:18.740Z,8.43
2023-01-05T21:36:48.640Z,8.23
2023-01-05T21:39:20.012Z,8.07
2023-01-05T21:42:05.754Z,8.73
2023-01-05T21:44:35.526Z,11.13
2023-01-05T21:47:05.722Z,8.57
2023-01-05T21:49:34.703Z,9.07
2023-01-05T21:52:20.309Z,6.40
2023-01-05T21:55:05.790Z,7.53
2023-01-05T21:57:33.835Z,7.30
2023-01-05T22:00:03.235Z,8.17
2023-01-05T22:02:31.169Z,8.87
2023-01-05T22:04:59.124Z,9.73
2023-01-05T22:07:27.301Z,7.57
2023-01-05T22:09:55.242Z,7.43
2023-01-05T22:12:23.232Z,7.63
2023-01-05T22:14:51.515Z,7.87
2023-01-05T22:17:20.885Z,6.40
2023-01-05T22:19:48.940Z,6.53
2023-01-05T22:22:16.978Z,8.23
2023-01-05T22:24:44.947Z,7.07
2023-01-05T22:27:13.106Z,6.97
2023-01-05T22:29:41.087Z,7.90
2023-01-05T22:32:09.029Z,6.33
2023-01-05T22:34:43.852Z,6.23
2023-01-05T22:37:11.806Z,8.90
2023-01-05T22:39:39.846Z,6.23
2023-01-05T22:42:08.129Z,6.97
2023-01-05T22:44:36.229Z,6.87
2023-01-05T22:47:04.205Z,8.03
2023-01-05T22:49:32.203Z,7.40
2023-01-05T22:52:01.574Z,11.43
2023-01-05T22:54:29.725Z,8.40
2023-01-05T22:56:57.729Z,7.50
2023-01-05T22:59:27.803Z,10.80
2023-01-05T23:01:56.497Z,8.43
2023-01-05T23:04:24.534Z,9.77
2023-01-05T23:06:52.550Z,8.27
2023-01-05T23:09:22.197Z,8.00
2023-01-05T23:11:50.222Z,8.50
2023-01-05T23:14:19.281Z,7.63
2023-01-05T23:16:47.767Z,8.93
2023-01-05T23:19:17.135Z,9.80
2023-01-05T23:21:45.205Z,11.53
2023-01-05T23:24:14.429Z,9.87
2023-01-05T23:26:43.869Z,8.77
2023-01-05T23:29:11.813Z,9.43
2023-01-05T23:31:39.935Z,9.27
2023-01-05T23:34:07.884Z,10.90
2023-01-05T23:36:35.862Z,12.83
2023-01-05T23:39:03.858Z,9.77
2023-01-05T23:41:31.789Z,10.37
2023-01-05T23:44:01.235Z,10.10
2023-01-05T23:46:29.269Z,9.07
2023-01-05T23:48:57.222Z,9.60
2023-01-05T23:51:25.215Z,10.17
2023-01-05T23:53:53.816Z,9.37
2023-01-05T23:56:22.986Z,10.30
2023-01-05T23:58:55.199Z,10.53
